createdAt,value
2017-12-19T00:00:36.497Z,48.4
2017-12-19T00:01:39.001Z,49.7
2017-12-19T00:02:41.495Z,49.0
2017-12-19T00:03:44.001Z,48.7
2017-12-19T00:04:45.672Z,47.0
2017-12-19T00:05:47.332Z,47.0
2017-12-19T00:06:48.990Z,47.2
2017-12-19T00:07:50.632Z,45.6
2017-12-19T00:08:55.004Z,45.3
2017-12-19T00:09:56.726Z,44.9
2017-12-19T00:10:58.346Z,44.5
2017-12-19T00:12:00.047Z,44.1
2017-12-19T00:13:01.709Z,42.9
2017-12-19T00:14:03.373Z,45.2
2017-12-19T00:15:05.038Z,46.0
2017-12-19T00:16:06.690Z,44.9
2017-12-19T00:17:08.428Z,43.2
2017-12-19T00:18:10.069Z,44.3
2017-12-19T00:19:11.720Z,44.7
2017-12-19T00:20:14.038Z,43.6
2017-12-19T00:21:16.498Z,44.5
2017-12-19T00:22:18.137Z,42.9
2017-12-19T00:23:19.810Z,44.1
2017-12-19T00:24:21.458Z,46.3
2017-12-19T00:25:23.132Z,43.5
2017-12-19T00:26:27.513Z,43.0
2017-12-19T00:27:29.264Z,42.2
2017-12-19T00:28:37.550Z,44.7
2017-12-19T00:29:39.196Z,42.2
2017-12-19T00:30:40.860Z,42.5
2017-12-19T00:31:42.540Z,43.3
2017-12-19T00:32:44.190Z,41.7
2017-12-19T00:33:46.024Z,43.9
2017-12-19T00:34:48.545Z,43.4
2017-12-19T00:35:50.210Z,44.9
2017-12-19T00:36:51.867Z,44.9
2017-12-19T00:37:53.513Z,45.1
2017-12-19T00:38:55.255Z,45.3
2017-12-19T00:39:56.960Z,43.8
2017-12-19T00:40:58.645Z,46.2
2017-12-19T00:42:00.301Z,45.4
2017-12-19T00:43:01.989Z,46.5
2017-12-19T00:44:03.680Z,44.9
2017-12-19T00:45:05.423Z,45.0
2017-12-19T00:46:07.078Z,44.4
2017-12-19T00:47:08.757Z,45.4
2017-12-19T00:48:10.416Z,43.8
2017-12-19T00:49:12.066Z,45.1
2017-12-19T00:50:13.721Z,45.4
2017-12-19T00:51:16.097Z,44.3
2017-12-19T00:52:17.734Z,48.3
2017-12-19T00:53:20.022Z,44.4
2017-12-19T00:54:21.751Z,44.9
2017-12-19T00:55:23.382Z,44.6
2017-12-19T00:56:35.136Z,43.0
2017-12-19T00:57:36.781Z,45.3
2017-12-19T00:58:38.439Z,43.6
2017-12-19T00:59:40.104Z,43.9
2017-12-19T01:00:44.519Z,44.7
2017-12-19T01:01:46.175Z,43.3
2017-12-19T01:02:48.567Z,43.0
2017-12-19T01:03:50.259Z,43.5
2017-12-19T01:04:51.989Z,42.3
2017-12-19T01:05:53.670Z,42.0
2017-12-19T01:06:56.012Z,44.2
2017-12-19T01:07:58.518Z,43.8
2017-12-19T01:09:00.207Z,42.9
2017-12-19T01:10:02.540Z,41.9
2017-12-19T01:11:04.188Z,42.0
2017-12-19T01:12:05.966Z,42.0
2017-12-19T01:13:07.644Z,42.5
2017-12-19T01:14:09.304Z,43.3
2017-12-19T01:15:10.954Z,43.1
2017-12-19T01:16:12.604Z,43.3
2017-12-19T01:17:15.011Z,43.6
2017-12-19T01:18:16.662Z,44.7
2017-12-19T01:19:19.000Z,44.5
2017-12-19T01:20:20.658Z,44.3
2017-12-19T01:21:22.999Z,47.0
2017-12-19T01:22:25.535Z,47.0
2017-12-19T01:23:27.194Z,46.2
2017-12-19T01:24:28.883Z,46.5
2017-12-19T01:25:30.702Z,48.8
2017-12-19T01:26:32.489Z,48.3
2017-12-19T01:27:34.122Z,50.0
2017-12-19T01:28:35.759Z,49.2
2017-12-19T01:29:37.426Z,49.2
2017-12-19T01:30:40.060Z,48.1
2017-12-19T01:31:41.707Z,46.9
2017-12-19T01:32:43.392Z,48.1
2017-12-19T01:33:45.035Z,47.3
2017-12-19T01:34:46.696Z,48.7
2017-12-19T01:35:48.389Z,47.4
2017-12-19T01:36:50.051Z,49.7
2017-12-19T01:37:51.683Z,50.3
2017-12-19T01:38:53.357Z,48.2
2017-12-19T01:39:55.075Z,48.0
2017-12-19T01:40:56.724Z,48.9
2017-12-19T01:41:58.391Z,50.7
2017-12-19T01:43:00.035Z,48.2
2017-12-19T01:44:01.772Z,48.2
2017-12-19T01:45:03.423Z,48.9
2017-12-19T01:46:08.057Z,49.5
2017-12-19T01:47:10.612Z,51.7
2017-12-19T01:48:12.339Z,49.3
2017-12-19T01:49:14.007Z,48.6
2017-12-19T01:50:15.642Z,51.1
2017-12-19T01:51:17.301Z,51.2
2017-12-19T01:52:18.963Z,48.6
2017-12-19T01:53:20.618Z,48.7
2017-12-19T01:54:22.285Z,48.9
2017-12-19T01:55:23.912Z,48.5
2017-12-19T01:56:25.668Z,47.9
2017-12-19T01:57:27.301Z,48.0
2017-12-19T01:58:28.975Z,49.6
2017-12-19T01:59:30.660Z,49.1
2017-12-19T02:00:32.428Z,49.2
2017-12-19T02:01:34.076Z,49.2
2017-12-19T02:02:35.799Z,50.8
2017-12-19T02:03:37.470Z,50.3
2017-12-19T02:04:39.165Z,51.1
2017-12-19T02:05:40.855Z,52.5
2017-12-19T02:06:42.561Z,52.8
2017-12-19T02:07:44.338Z,51.9
2017-12-19T02:08:46.077Z,51.7
2017-12-19T02:09:48.557Z,52.4
2017-12-19T02:10:53.141Z,51.4
2017-12-19T02:11:54.821Z,50.3
2017-12-19T02:12:57.038Z,52.0
2017-12-19T02:13:58.717Z,54.5
2017-12-19T02:15:00.456Z,51.0
2017-12-19T02:16:03.135Z,52.6
2017-12-19T02:17:04.769Z,52.3
2017-12-19T02:18:06.442Z,51.1
2017-12-19T02:19:08.068Z,53.5
2017-12-19T02:20:10.601Z,51.9
2017-12-19T02:21:13.055Z,53.1
2017-12-19T02:22:14.707Z,51.7
2017-12-19T02:23:16.370Z,52.6
2017-12-19T02:24:18.134Z,50.4
2017-12-19T02:25:19.834Z,50.5
2017-12-19T02:26:21.501Z,53.7
2017-12-19T02:27:23.169Z,53.5
2017-12-19T02:28:24.869Z,52.9
2017-12-19T02:29:26.527Z,53.3
2017-12-19T02:30:28.197Z,53.0
2017-12-19T02:31:29.948Z,52.0
2017-12-19T02:32:31.648Z,52.9
2017-12-19T02:33:33.286Z,50.4
2017-12-19T02:34:34.921Z,50.0
2017-12-19T02:35:39.565Z,52.6
2017-12-19T02:36:41.246Z,50.5
2017-12-19T02:37:42.944Z,51.4
2017-12-19T02:38:44.614Z,52.1
2017-12-19T02:39:46.260Z,49.1
2017-12-19T02:40:47.914Z,50.5
2017-12-19T02:41:49.599Z,51.0
2017-12-19T02:42:51.310Z,50.4
2017-12-19T02:43:53.184Z,48.6
2017-12-19T02:44:54.936Z,51.0
2017-12-19T02:45:56.576Z,48.1
2017-12-19T02:46:58.244Z,49.3
2017-12-19T02:47:59.990Z,51.1
2017-12-19T02:49:01.708Z,49.0
2017-12-19T02:50:04.019Z,50.4
2017-12-19T02:51:05.687Z,46.6
2017-12-19T02:52:07.345Z,47.4
2017-12-19T02:53:09.000Z,48.9
2017-12-19T02:54:10.662Z,49.0
2017-12-19T02:55:12.353Z,48.5
2017-12-19T02:56:14.063Z,47.1
2017-12-19T02:57:15.786Z,48.6
2017-12-19T02:58:20.063Z,49.3
2017-12-19T02:59:21.746Z,47.7
2017-12-19T03:00:23.483Z,48.8
2017-12-19T03:01:26.062Z,49.5
2017-12-19T03:02:27.751Z,50.1
2017-12-19T03:03:29.444Z,50.1
2017-12-19T03:04:31.185Z,48.3
2017-12-19T03:05:32.916Z,50.7
2017-12-19T03:06:35.591Z,49.5
2017-12-19T03:07:37.339Z,48.8
2017-12-19T03:08:39.044Z,50.4
2017-12-19T03:09:40.789Z,49.0
2017-12-19T03:10:42.461Z,49.6
2017-12-19T03:11:44.136Z,50.0
2017-12-19T03:12:45.925Z,48.7
2017-12-19T03:13:47.605Z,50.6
2017-12-19T03:14:52.053Z,50.1
2017-12-19T03:15:53.694Z,48.9
2017-12-19T03:16:56.047Z,48.6
2017-12-19T03:17:57.714Z,49.5
2017-12-19T03:18:59.390Z,49.9
2017-12-19T03:20:01.088Z,48.2
2017-12-19T03:21:02.740Z,48.5
2017-12-19T03:22:04.415Z,50.3
2017-12-19T03:23:06.075Z,48.2
2017-12-19T03:24:07.823Z,49.6
2017-12-19T03:25:09.453Z,48.2
2017-12-19T03:26:11.251Z,48.4
2017-12-19T03:27:12.899Z,49.8
2017-12-19T03:28:14.723Z,49.7
2017-12-19T03:29:16.549Z,48.6
2017-12-19T03:30:18.269Z,48.1
2017-12-19T03:31:22.571Z,47.8
2017-12-19T03:32:24.222Z,45.7
2017-12-19T03:33:25.887Z,47.3
2017-12-19T03:34:28.071Z,45.0
2017-12-19T03:35:29.809Z,47.3
2017-12-19T03:36:38.055Z,47.7
2017-12-19T03:37:39.750Z,47.1
2017-12-19T03:38:41.399Z,46.7
2017-12-19T03:39:43.039Z,48.1
2017-12-19T03:40:44.728Z,48.8
2017-12-19T03:41:47.065Z,46.9
2017-12-19T03:42:48.752Z,47.0
2017-12-19T03:43:51.061Z,45.1
2017-12-19T03:44:53.530Z,45.4
2017-12-19T03:45:55.192Z,45.0
2017-12-19T03:46:56.932Z,45.8
2017-12-19T03:47:58.647Z,44.9
2017-12-19T03:49:00.314Z,47.0
2017-12-19T03:50:01.978Z,47.2
2017-12-19T03:51:03.669Z,44.9
2017-12-19T03:52:05.329Z,47.4
2017-12-19T03:53:06.948Z,46.5
2017-12-19T03:54:08.618Z,47.5
2017-12-19T03:55:11.058Z,46.3
2017-12-19T03:56:12.709Z,46.6
2017-12-19T03:57:14.362Z,46.4
2017-12-19T03:58:16.563Z,45.9
2017-12-19T03:59:18.303Z,46.6
2017-12-19T04:00:19.976Z,46.5
2017-12-19T04:01:21.641Z,45.8
2017-12-19T04:02:26.048Z,44.9
2017-12-19T04:03:27.784Z,45.9
2017-12-19T04:04:29.536Z,47.1
2017-12-19T04:05:31.208Z,47.1
2017-12-19T04:06:32.860Z,46.3
2017-12-19T04:07:34.557Z,46.4
2017-12-19T04:08:37.185Z,44.6
2017-12-19T04:09:38.932Z,46.0
2017-12-19T04:10:40.574Z,46.3
2017-12-19T04:11:42.332Z,46.4
2017-12-19T04:12:44.073Z,47.0
2017-12-19T04:13:45.726Z,46.9
2017-12-19T04:14:47.373Z,46.6
2017-12-19T04:15:49.640Z,47.7
2017-12-19T04:16:51.346Z,47.0
2017-12-19T04:17:52.990Z,46.4
2017-12-19T04:18:54.629Z,45.1
2017-12-19T04:19:57.122Z,46.2
2017-12-19T04:21:01.606Z,47.6
2017-12-19T04:22:03.239Z,44.3
2017-12-19T04:23:05.583Z,44.9
2017-12-19T04:24:07.257Z,44.3
2017-12-19T04:25:11.555Z,44.0
2017-12-19T04:26:16.071Z,44.1
2017-12-19T04:27:17.714Z,45.2
2017-12-19T04:28:19.351Z,44.0
2017-12-19T04:29:20.990Z,44.6
2017-12-19T04:30:23.549Z,44.2
2017-12-19T04:31:26.039Z,45.6
2017-12-19T04:32:27.684Z,45.2
2017-12-19T04:33:29.323Z,46.3
2017-12-19T04:34:30.951Z,42.9
2017-12-19T04:35:32.650Z,41.2
2017-12-19T04:36:34.311Z,38.1
2017-12-19T04:37:36.550Z,38.2
2017-12-19T04:38:38.186Z,36.2
2017-12-19T04:39:40.091Z,36.3
2017-12-19T04:40:42.196Z,37.8
2017-12-19T04:41:44.112Z,38.3
2017-12-19T04:42:45.751Z,39.4
2017-12-19T04:43:47.460Z,39.2
2017-12-19T04:44:49.083Z,39.0
2017-12-19T04:45:50.710Z,38.0
2017-12-19T04:46:55.068Z,37.4
2017-12-19T04:47:56.704Z,39.5
2017-12-19T04:48:58.328Z,40.9
2017-12-19T04:50:00.551Z,39.1
2017-12-19T04:51:05.050Z,39.6
2017-12-19T04:52:06.690Z,39.1
2017-12-19T04:53:08.318Z,40.5
2017-12-19T04:54:10.055Z,41.1
2017-12-19T04:55:11.731Z,41.0
2017-12-19T04:56:13.394Z,41.1
2017-12-19T04:57:15.031Z,39.7
2017-12-19T04:58:17.606Z,40.3
2017-12-19T04:59:19.331Z,43.4
2017-12-19T05:00:20.986Z,42.1
2017-12-19T05:01:22.609Z,42.6
2017-12-19T05:02:24.336Z,42.9
2017-12-19T05:03:26.629Z,42.6
2017-12-19T05:04:28.264Z,42.8
2017-12-19T05:05:29.926Z,42.0
2017-12-19T05:06:31.544Z,40.8
2017-12-19T05:07:33.171Z,43.2
2017-12-19T05:08:34.825Z,41.1
2017-12-19T05:09:36.464Z,43.7
2017-12-19T05:10:38.095Z,43.0
2017-12-19T05:11:39.753Z,41.1
2017-12-19T05:12:41.377Z,41.1
2017-12-19T05:13:43.005Z,40.4
2017-12-19T05:14:44.644Z,41.0
2017-12-19T05:15:46.341Z,43.4
2017-12-19T05:16:50.548Z,43.5
2017-12-19T05:17:52.197Z,44.6
2017-12-19T05:18:54.582Z,43.4
2017-12-19T05:19:56.218Z,45.5
2017-12-19T05:21:04.572Z,45.9
2017-12-19T05:24:24.499Z,43.5
2017-12-19T05:25:26.112Z,44.8
2017-12-19T05:26:27.759Z,44.3
2017-12-19T05:27:32.220Z,44.2
2017-12-19T05:28:33.840Z,44.0
2017-12-19T05:29:35.451Z,44.1
2017-12-19T05:30:37.064Z,43.7
2017-12-19T05:31:38.690Z,44.1
2017-12-19T05:32:40.304Z,43.6
2017-12-19T05:33:41.924Z,45.9
2017-12-19T05:34:44.235Z,44.9
2017-12-19T05:35:46.723Z,43.6
2017-12-19T05:36:48.339Z,43.0
2017-12-19T05:37:49.957Z,43.3
2017-12-19T05:38:51.600Z,41.3
2017-12-19T05:39:53.217Z,41.5
2017-12-19T05:40:54.830Z,39.4
2017-12-19T05:41:56.443Z,39.9
2017-12-19T05:42:58.055Z,40.5
2017-12-19T05:43:59.673Z,40.7
2017-12-19T05:45:02.251Z,40.3
2017-12-19T05:46:03.842Z,40.5
2017-12-19T05:47:06.222Z,43.3
2017-12-19T05:48:07.845Z,43.4
2017-12-19T05:49:09.461Z,41.7
2017-12-19T05:50:11.073Z,40.9
2017-12-19T05:51:12.690Z,40.5
2017-12-19T05:52:14.305Z,40.8
2017-12-19T05:53:15.924Z,40.2
2017-12-19T05:54:17.534Z,39.7
2017-12-19T05:55:19.150Z,40.0
2017-12-19T05:56:20.762Z,39.2
2017-12-19T05:57:22.381Z,37.7
2017-12-19T05:58:23.996Z,37.8
2017-12-19T05:59:25.608Z,36.9
2017-12-19T06:00:27.229Z,38.0
2017-12-19T06:01:28.851Z,39.0
2017-12-19T06:02:30.460Z,38.3
2017-12-19T06:03:32.079Z,38.3
2017-12-19T06:04:33.698Z,37.9
2017-12-19T06:05:36.240Z,37.6
2017-12-19T06:06:38.733Z,38.1
2017-12-19T06:07:40.352Z,38.3
2017-12-19T06:08:41.962Z,36.9
2017-12-19T06:09:43.582Z,36.8
2017-12-19T06:10:45.198Z,39.3
2017-12-19T06:11:46.807Z,37.3
2017-12-19T06:12:48.458Z,39.3
2017-12-19T06:13:50.074Z,38.4
2017-12-19T06:14:52.229Z,41.5
2017-12-19T06:15:53.840Z,39.9
2017-12-19T06:16:55.457Z,40.5
2017-12-19T06:17:57.728Z,40.6
2017-12-19T06:18:59.341Z,41.3
2017-12-19T06:20:01.730Z,40.3
2017-12-19T06:21:03.345Z,40.9
2017-12-19T06:22:05.247Z,41.0
2017-12-19T06:23:06.861Z,43.0
2017-12-19T06:24:08.477Z,42.5
2017-12-19T06:25:10.091Z,42.2
2017-12-19T06:26:11.706Z,41.6
2017-12-19T06:27:13.322Z,40.4
2017-12-19T06:28:56.208Z,40.5
2017-12-19T06:29:57.827Z,40.8
2017-12-19T06:30:59.438Z,41.3
2017-12-19T06:32:01.051Z,42.5
2017-12-19T06:33:02.667Z,41.6
2017-12-19T06:34:04.285Z,43.2
2017-12-19T06:35:05.896Z,42.4
2017-12-19T06:36:08.230Z,41.4
2017-12-19T06:37:09.854Z,45.6
2017-12-19T06:38:11.471Z,42.2
2017-12-19T06:39:13.086Z,43.2
2017-12-19T06:40:14.709Z,42.5
2017-12-19T06:41:16.323Z,44.6
2017-12-19T06:42:17.935Z,43.6
2017-12-19T06:43:19.553Z,43.3
2017-12-19T06:44:21.169Z,42.0
2017-12-19T06:45:22.783Z,40.9
2017-12-19T06:46:24.399Z,41.3
2017-12-19T06:47:26.012Z,41.5
2017-12-19T06:48:27.632Z,41.7
2017-12-19T06:49:30.241Z,41.7
2017-12-19T06:50:32.731Z,42.4
2017-12-19T06:51:34.355Z,41.8
2017-12-19T06:52:35.971Z,43.9
2017-12-19T06:53:37.591Z,43.3
2017-12-19T06:54:39.210Z,43.0
2017-12-19T06:55:43.738Z,43.3
2017-12-19T06:56:45.386Z,43.6
2017-12-19T06:57:47.018Z,42.8
2017-12-19T06:58:49.243Z,45.3
2017-12-19T06:59:50.863Z,44.3
2017-12-19T07:00:52.498Z,45.1
2017-12-19T07:01:54.141Z,45.1
2017-12-19T07:02:55.815Z,43.7
2017-12-19T07:03:58.263Z,44.7
2017-12-19T07:04:59.898Z,44.0
2017-12-19T07:06:01.540Z,43.7
2017-12-19T07:07:03.172Z,42.4
2017-12-19T07:08:04.808Z,43.4
2017-12-19T07:09:07.245Z,43.2
2017-12-19T07:10:08.871Z,45.0
2017-12-19T07:11:10.501Z,44.9
2017-12-19T07:12:12.752Z,46.5
2017-12-19T07:13:14.375Z,48.0
2017-12-19T07:14:15.990Z,46.4
2017-12-19T07:15:17.603Z,46.3
2017-12-19T07:16:19.221Z,47.0
2017-12-19T07:17:20.840Z,48.4
2017-12-19T07:18:22.462Z,48.6
2017-12-19T07:19:24.089Z,47.8
2017-12-19T07:20:28.248Z,49.7
2017-12-19T07:21:29.864Z,47.4
2017-12-19T07:22:32.254Z,47.4
2017-12-19T07:23:34.752Z,47.5
2017-12-19T07:24:36.366Z,46.5
2017-12-19T07:25:37.989Z,46.1
2017-12-19T07:26:39.608Z,46.2
2017-12-19T07:27:41.758Z,48.3
2017-12-19T07:28:43.373Z,46.5
2017-12-19T07:29:45.747Z,48.3
2017-12-19T07:30:48.250Z,49.7
2017-12-19T07:31:49.873Z,49.6
2017-12-19T07:32:51.486Z,48.8
2017-12-19T07:33:53.118Z,48.0
2017-12-19T07:34:54.731Z,49.4
2017-12-19T07:35:56.354Z,49.3
2017-12-19T07:36:57.969Z,48.9
2017-12-19T07:37:59.594Z,49.9
2017-12-19T07:39:07.763Z,52.0
2017-12-19T07:40:09.396Z,51.0
2017-12-19T07:41:11.026Z,50.6
2017-12-19T07:42:15.271Z,52.0
2017-12-19T07:43:17.763Z,53.2
2017-12-19T07:44:20.431Z,50.8
2017-12-19T07:45:22.777Z,52.1
2017-12-19T07:46:24.406Z,53.9
2017-12-19T07:47:26.032Z,50.5
2017-12-19T07:48:27.670Z,52.3
2017-12-19T07:49:29.304Z,53.4
2017-12-19T07:50:31.794Z,53.2
2017-12-19T07:51:33.446Z,55.1
2017-12-19T07:52:35.108Z,53.6
2017-12-19T07:53:36.717Z,55.4
2017-12-19T07:54:38.347Z,53.9
2017-12-19T07:55:39.966Z,55.9
2017-12-19T07:56:41.594Z,54.7
2017-12-19T07:57:43.243Z,54.3
2017-12-19T07:58:44.862Z,55.6
2017-12-19T07:59:46.504Z,55.1
2017-12-19T08:00:48.150Z,54.0
2017-12-19T08:01:49.797Z,54.2
2017-12-19T08:02:51.446Z,57.5
2017-12-19T08:03:53.082Z,56.6
2017-12-19T08:04:54.717Z,56.6
2017-12-19T08:05:56.382Z,58.6
2017-12-19T08:06:58.020Z,57.0
2017-12-19T08:07:59.678Z,58.9
2017-12-19T08:09:01.300Z,58.2
2017-12-19T08:10:02.944Z,62.4
2017-12-19T08:11:05.277Z,61.0
2017-12-19T08:12:06.940Z,59.8
2017-12-19T08:13:08.571Z,61.1
2017-12-19T08:14:10.219Z,59.7
2017-12-19T08:15:11.851Z,58.6
2017-12-19T08:16:13.492Z,59.2
2017-12-19T08:17:15.130Z,56.7
2017-12-19T08:18:16.780Z,58.0
2017-12-19T08:19:18.430Z,57.2
2017-12-19T08:20:20.082Z,58.4
2017-12-19T08:21:21.729Z,57.6
2017-12-19T08:22:23.378Z,55.9
2017-12-19T08:23:25.009Z,58.3
2017-12-19T08:24:27.297Z,55.3
2017-12-19T08:25:28.969Z,56.9
2017-12-19T08:26:30.625Z,55.2
2017-12-19T08:27:32.243Z,54.6
2017-12-19T08:28:33.888Z,54.2
2017-12-19T08:29:36.275Z,55.0
2017-12-19T08:30:37.942Z,54.9
2017-12-19T08:31:39.576Z,55.6
2017-12-19T08:32:41.235Z,55.7
2017-12-19T08:33:42.873Z,55.8
2017-12-19T08:34:44.519Z,59.1
2017-12-19T08:35:46.176Z,58.8
2017-12-19T08:36:47.818Z,59.8
2017-12-19T08:37:52.295Z,58.3
2017-12-19T08:38:53.944Z,56.9
2017-12-19T08:39:55.600Z,58.0
2017-12-19T08:40:57.220Z,59.4
2017-12-19T08:41:58.844Z,58.6
2017-12-19T08:43:00.463Z,58.7
2017-12-19T08:44:02.085Z,60.3
2017-12-19T08:45:04.144Z,60.5
2017-12-19T08:46:08.311Z,60.9
2017-12-19T08:47:10.203Z,60.7
2017-12-19T08:48:13.214Z,60.7
2017-12-19T08:49:14.883Z,62.6
2017-12-19T08:50:16.532Z,63.3
2017-12-19T08:51:18.183Z,60.2
2017-12-19T08:52:19.821Z,63.6
2017-12-19T08:53:21.493Z,62.3
2017-12-19T08:54:23.127Z,61.6
2017-12-19T08:55:25.294Z,62.3
2017-12-19T08:56:26.938Z,59.8
2017-12-19T08:57:28.573Z,62.3
2017-12-19T08:58:30.215Z,61.3
2017-12-19T08:59:34.795Z,61.1
2017-12-19T09:00:37.294Z,60.5
2017-12-19T09:01:38.927Z,63.7
2017-12-19T09:02:40.572Z,59.7
2017-12-19T09:03:42.205Z,59.3
2017-12-19T09:04:43.840Z,61.9
2017-12-19T09:05:45.497Z,62.9
2017-12-19T09:06:47.163Z,62.3
2017-12-19T09:07:48.799Z,63.0
2017-12-19T09:08:51.302Z,61.9
2017-12-19T09:09:52.935Z,60.6
2017-12-19T09:10:54.575Z,66.4
2017-12-19T09:11:56.198Z,62.8
2017-12-19T09:12:57.842Z,63.0
2017-12-19T09:13:59.500Z,61.7
2017-12-19T09:15:01.142Z,62.1
2017-12-19T09:16:02.748Z,62.0
2017-12-19T09:17:04.368Z,60.2
2017-12-19T09:18:05.992Z,61.3
2017-12-19T09:19:07.604Z,59.9
2017-12-19T09:20:09.224Z,59.9
2017-12-19T09:21:10.841Z,57.4
2017-12-19T09:22:12.465Z,58.7
2017-12-19T09:23:14.085Z,55.6
2017-12-19T09:24:15.701Z,57.7
2017-12-19T09:25:17.323Z,59.2
2017-12-19T09:26:19.779Z,60.6
2017-12-19T09:27:21.398Z,61.5
2017-12-19T09:28:23.017Z,60.0
2017-12-19T09:29:24.637Z,57.0
2017-12-19T09:30:26.779Z,57.8
2017-12-19T09:31:28.405Z,59.3
2017-12-19T09:32:30.018Z,58.7
2017-12-19T09:33:31.636Z,56.9
2017-12-19T09:34:33.264Z,58.9
2017-12-19T09:35:34.879Z,56.0
2017-12-19T09:36:36.500Z,59.6
2017-12-19T09:37:38.281Z,60.4
2017-12-19T09:38:40.218Z,58.2
2017-12-19T09:39:41.889Z,60.6
2017-12-19T09:40:43.538Z,60.8
2017-12-19T09:41:45.196Z,61.7
2017-12-19T09:42:46.895Z,63.4
2017-12-19T09:43:48.590Z,65.3
2017-12-19T09:44:50.250Z,64.0
2017-12-19T09:45:54.804Z,61.4
2017-12-19T09:46:56.443Z,58.3
2017-12-19T09:47:58.784Z,60.2
2017-12-19T09:49:00.465Z,60.9
2017-12-19T09:50:02.158Z,61.5
2017-12-19T09:51:04.358Z,61.0
2017-12-19T09:52:06.392Z,57.8
2017-12-19T09:53:10.840Z,58.0
2017-12-19T09:54:15.326Z,59.9
2017-12-19T09:55:17.051Z,59.2
2017-12-19T09:56:21.385Z,58.6
2017-12-19T09:57:23.043Z,59.8
2017-12-19T09:58:24.701Z,58.2
2017-12-19T09:59:26.363Z,59.4
2017-12-19T10:00:28.012Z,59.5
2017-12-19T10:01:29.702Z,59.5
2017-12-19T10:02:31.495Z,59.4
2017-12-19T10:03:33.182Z,57.1
2017-12-19T10:04:34.823Z,58.2
2017-12-19T10:05:39.316Z,60.0
2017-12-19T10:06:40.984Z,62.9
2017-12-19T10:07:43.308Z,61.4
2017-12-19T10:08:45.094Z,62.1
2017-12-19T10:09:46.753Z,62.8
2017-12-19T10:10:48.433Z,62.1
2017-12-19T10:11:50.148Z,59.9
2017-12-19T10:12:51.956Z,61.7
2017-12-19T10:13:53.967Z,60.8
2017-12-19T10:14:56.778Z,60.5
2017-12-19T10:15:59.050Z,62.1
2017-12-19T10:17:01.436Z,62.9
2017-12-19T10:18:03.200Z,62.0
2017-12-19T10:19:08.112Z,64.5
2017-12-19T10:20:10.389Z,60.9
2017-12-19T10:21:12.170Z,61.3
2017-12-19T10:22:13.942Z,59.7
2017-12-19T10:23:16.151Z,59.2
2017-12-19T10:24:18.387Z,59.4
2017-12-19T10:25:21.404Z,58.2
2017-12-19T10:26:23.681Z,57.5
2017-12-19T10:27:25.476Z,61.2
2017-12-19T10:28:27.187Z,60.0
2017-12-19T10:29:28.928Z,61.2
2017-12-19T10:30:30.608Z,60.0
2017-12-19T10:31:32.533Z,60.0
2017-12-19T10:32:34.837Z,62.1
2017-12-19T10:33:36.555Z,59.9
2017-12-19T10:34:38.277Z,59.9
2017-12-19T10:35:43.266Z,60.5
2017-12-19T10:36:45.348Z,59.7
2017-12-19T10:37:48.165Z,61.4
2017-12-19T10:38:49.824Z,58.3
2017-12-19T10:39:55.380Z,57.7
2017-12-19T10:40:57.117Z,55.4
2017-12-19T10:41:59.433Z,58.9
2017-12-19T10:43:01.077Z,59.4
2017-12-19T10:44:02.754Z,59.1
2017-12-19T10:45:04.377Z,59.6
2017-12-19T10:46:06.012Z,58.3
2017-12-19T10:47:07.661Z,57.5
2017-12-19T10:48:09.298Z,60.1
2017-12-19T10:49:10.928Z,59.9
2017-12-19T10:50:12.593Z,59.7
2017-12-19T10:51:14.225Z,59.0
2017-12-19T10:52:15.876Z,58.7
2017-12-19T10:53:17.546Z,59.6
2017-12-19T10:54:19.815Z,60.7
2017-12-19T10:55:21.489Z,62.2
2017-12-19T10:56:23.127Z,59.0
2017-12-19T10:57:31.374Z,61.3
2017-12-19T10:58:32.997Z,59.4
2017-12-19T10:59:35.303Z,60.2
2017-12-19T11:00:36.997Z,57.7
2017-12-19T11:01:39.360Z,58.3
2017-12-19T11:02:41.908Z,59.6
2017-12-19T11:03:43.588Z,55.4
2017-12-19T11:04:46.324Z,58.3
2017-12-19T11:05:49.457Z,60.1
2017-12-19T11:06:51.225Z,61.9
2017-12-19T11:07:53.932Z,60.7
2017-12-19T11:08:55.576Z,59.0
2017-12-19T11:09:57.274Z,60.0
2017-12-19T11:10:58.967Z,57.7
2017-12-19T11:12:00.700Z,58.4
2017-12-19T11:13:02.462Z,58.3
2017-12-19T11:14:10.833Z,56.2
2017-12-19T11:15:12.512Z,56.3
2017-12-19T11:16:14.355Z,55.9
2017-12-19T11:17:16.582Z,57.2
2017-12-19T11:18:18.976Z,55.8
2017-12-19T11:19:21.444Z,55.9
2017-12-19T11:20:23.117Z,56.8
2017-12-19T11:21:24.871Z,54.5
2017-12-19T11:22:27.329Z,56.1
2017-12-19T11:23:28.998Z,56.8
2017-12-19T11:24:31.369Z,55.9
2017-12-19T11:25:33.096Z,56.7
2017-12-19T11:26:34.830Z,58.4
2017-12-19T11:27:39.423Z,57.6
2017-12-19T11:28:42.336Z,57.2
2017-12-19T11:29:44.371Z,59.3
2017-12-19T11:30:49.277Z,62.7
2017-12-19T11:31:51.352Z,62.1
2017-12-19T11:32:53.105Z,60.1
2017-12-19T11:33:54.818Z,59.0
2017-12-19T11:34:56.480Z,60.0
2017-12-19T11:35:58.425Z,60.6
2017-12-19T11:37:00.600Z,59.6
2017-12-19T11:38:02.276Z,59.5
2017-12-19T11:39:03.982Z,58.0
2017-12-19T11:40:05.653Z,57.3
2017-12-19T11:41:07.310Z,57.8
2017-12-19T11:42:09.906Z,57.5
2017-12-19T11:43:11.598Z,61.2
2017-12-19T11:44:13.305Z,62.9
2017-12-19T11:45:15.022Z,66.0
2017-12-19T11:46:17.383Z,63.1
2017-12-19T11:47:19.036Z,64.2
2017-12-19T11:48:20.718Z,63.4
2017-12-19T11:49:23.860Z,64.1
2017-12-19T11:50:25.937Z,64.9
2017-12-19T11:51:27.989Z,66.3
2017-12-19T11:52:30.088Z,63.2
2017-12-19T11:53:32.196Z,60.8
2017-12-19T11:54:36.730Z,64.6
2017-12-19T11:55:38.454Z,65.5
2017-12-19T11:56:40.125Z,62.5
2017-12-19T11:57:41.804Z,62.7
2017-12-19T11:58:43.482Z,65.8
2017-12-19T11:59:45.156Z,62.9
2017-12-19T12:00:46.804Z,63.4
2017-12-19T12:01:48.591Z,65.8
2017-12-19T12:02:50.254Z,63.5
2017-12-19T12:03:51.900Z,62.6
2017-12-19T12:04:53.532Z,62.2
2017-12-19T12:05:55.174Z,65.7
2017-12-19T12:06:56.849Z,60.9
2017-12-19T12:07:58.523Z,62.0
2017-12-19T12:09:00.177Z,59.4
2017-12-19T12:10:01.799Z,62.3
2017-12-19T12:11:03.441Z,63.1
2017-12-19T12:12:05.851Z,62.3
2017-12-19T12:13:07.542Z,64.3
2017-12-19T12:14:11.840Z,65.5
2017-12-19T12:15:13.503Z,67.8
2017-12-19T12:16:15.138Z,62.0
2017-12-19T12:17:16.788Z,63.3
2017-12-19T12:18:19.336Z,62.9
2017-12-19T12:19:21.856Z,67.2
2017-12-19T12:20:23.504Z,65.2
2017-12-19T12:21:25.147Z,63.8
2017-12-19T12:22:26.772Z,63.4
2017-12-19T12:23:28.425Z,62.6
2017-12-19T12:24:30.096Z,64.5
2017-12-19T12:25:31.742Z,63.1
2017-12-19T12:26:33.362Z,59.9
2017-12-19T12:27:35.000Z,64.1
2017-12-19T12:28:36.631Z,61.0
2017-12-19T12:29:38.266Z,62.3
2017-12-19T12:30:39.894Z,60.2
2017-12-19T12:31:41.519Z,59.1
2017-12-19T12:32:43.137Z,57.5
2017-12-19T12:33:44.774Z,59.4
2017-12-19T12:34:49.331Z,57.2
2017-12-19T12:35:51.822Z,57.4
2017-12-19T12:36:53.449Z,56.9
2017-12-19T12:37:55.067Z,57.5
2017-12-19T12:38:56.690Z,55.9
2017-12-19T12:39:58.830Z,56.1
2017-12-19T12:41:00.450Z,55.3
2017-12-19T12:42:02.824Z,53.6
2017-12-19T12:43:04.449Z,53.1
2017-12-19T12:44:06.070Z,53.9
2017-12-19T12:45:08.327Z,52.2
2017-12-19T12:46:09.959Z,53.5
2017-12-19T12:47:11.573Z,54.1
2017-12-19T12:48:13.192Z,53.3
2017-12-19T12:49:14.812Z,55.0
2017-12-19T12:50:16.434Z,50.7
2017-12-19T12:51:18.054Z,51.8
2017-12-19T12:52:19.688Z,51.8
2017-12-19T12:53:21.835Z,52.2
2017-12-19T12:54:23.456Z,50.3
2017-12-19T12:55:25.086Z,51.4
2017-12-19T12:56:26.708Z,51.3
2017-12-19T12:57:28.333Z,50.1
2017-12-19T12:58:29.956Z,49.1
2017-12-19T12:59:31.585Z,48.3
2017-12-19T13:00:33.211Z,49.7
2017-12-19T13:01:34.834Z,47.5
2017-12-19T13:02:37.333Z,44.4
2017-12-19T13:03:38.952Z,44.7
2017-12-19T13:04:40.577Z,45.9
2017-12-19T13:05:42.199Z,46.2
2017-12-19T13:06:43.820Z,48.1
2017-12-19T13:07:45.454Z,47.1
2017-12-19T13:08:47.076Z,45.1
2017-12-19T13:09:48.698Z,46.1
2017-12-19T13:10:52.833Z,44.0
2017-12-19T13:11:55.335Z,43.8
2017-12-19T13:12:56.960Z,44.5
2017-12-19T13:13:58.576Z,42.6
2017-12-19T13:15:00.203Z,44.2
2017-12-19T13:16:01.841Z,44.8
2017-12-19T13:17:03.462Z,43.2
2017-12-19T13:18:05.086Z,43.4
2017-12-19T13:19:06.706Z,41.9
2017-12-19T13:20:08.837Z,43.1
2017-12-19T13:21:10.458Z,42.5
2017-12-19T13:22:12.083Z,45.1
2017-12-19T13:23:13.700Z,44.3
2017-12-19T13:24:15.318Z,44.5
2017-12-19T13:25:17.836Z,44.4
2017-12-19T13:26:19.455Z,44.7
2017-12-19T13:27:21.078Z,44.9
2017-12-19T13:28:22.703Z,45.3
2017-12-19T13:29:24.323Z,43.9
2017-12-19T13:30:25.949Z,46.4
2017-12-19T13:31:27.572Z,46.3
2017-12-19T13:32:29.197Z,46.1
2017-12-19T13:33:30.866Z,46.7
2017-12-19T13:34:32.440Z,46.6
2017-12-19T13:35:34.062Z,46.9
2017-12-19T13:36:35.687Z,46.6
2017-12-19T13:37:37.308Z,46.9
2017-12-19T13:38:38.930Z,47.9
2017-12-19T13:39:40.566Z,47.6
2017-12-19T13:40:42.841Z,46.8
2017-12-19T13:41:45.339Z,45.7
2017-12-19T13:42:46.965Z,45.0
2017-12-19T13:43:48.593Z,46.7
2017-12-19T13:44:50.211Z,46.9
2017-12-19T13:45:51.835Z,47.5
2017-12-19T13:46:53.455Z,48.0
2017-12-19T13:47:55.842Z,45.9